sensor_id;sensor_type;location;lat;lon;timestamp;P1;durP1;ratioP1;P2;durP2;ratioP2
64291;SDS011;50628;51.008;13.658;2023-04-03T00:03:03;4.60;;;1.00;;
64291;SDS011;50628;51.008;13.658;2023-04-03T00:08:05;22.00;;;2.13;;
64291;SDS011;50628;51.008;13.658;2023-04-03T00:13:09;5.23;;;1.10;;
64291;SDS011;50628;51.008;13.658;2023-04-03T00:18:11;5.47;;;1.07;;
64291;SDS011;50628;51.008;13.658;2023-04-03T00:23:13;2.23;;;1.07;;
64291;SDS011;50628;51.008;13.658;2023-04-03T00:28:16;3.23;;;1.17;;
64291;SDS011;50628;51.008;13.658;2023-04-03T00:33:18;2.90;;;1.00;;
64291;SDS011;50628;51.008;13.658;2023-04-03T00:38:21;7.17;;;1.07;;
64291;SDS011;50628;51.008;13.658;2023-04-03T00:43:25;4.00;;;1.13;;
64291;SDS011;50628;51.008;13.658;2023-04-03T00:48:28;3.80;;;0.70;;
64291;SDS011;50628;51.008;13.658;2023-04-03T00:53:35;3.37;;;1.30;;
64291;SDS011;50628;51.008;13.658;2023-04-03T00:58:42;5.73;;;1.37;;
64291;SDS011;50628;51.008;13.658;2023-04-03T01:03:49;3.63;;;0.90;;
64291;SDS011;50628;51.008;13.658;2023-04-03T01:08:51;2.87;;;0.80;;
64291;SDS011;50628;51.008;13.658;2023-04-03T01:13:56;3.97;;;0.93;;
64291;SDS011;50628;51.008;13.658;2023-04-03T01:18:59;4.80;;;1.33;;
64291;SDS011;50628;51.008;13.658;2023-04-03T01:24:08;4.33;;;1.33;;
64291;SDS011;50628;51.008;13.658;2023-04-03T01:29:19;3.03;;;1.00;;
64291;SDS011;50628;51.008;13.658;2023-04-03T01:34:22;4.77;;;1.03;;
64291;SDS011;50628;51.008;13.658;2023-04-03T01:39:25;4.17;;;1.00;;
64291;SDS011;50628;51.008;13.658;2023-04-03T01:44:27;2.67;;;1.07;;
64291;SDS011;50628;51.008;13.658;2023-04-03T01:49:31;3.37;;;1.27;;
64291;SDS011;50628;51.008;13.658;2023-04-03T01:54:33;3.87;;;1.03;;
64291;SDS011;50628;51.008;13.658;2023-04-03T01:59:34;3.03;;;1.27;;
64291;SDS011;50628;51.008;13.658;2023-04-03T02:04:38;3.33;;;1.00;;
64291;SDS011;50628;51.008;13.658;2023-04-03T02:09:40;3.53;;;1.33;;
64291;SDS011;50628;51.008;13.658;2023-04-03T02:14:43;4.80;;;1.30;;
64291;SDS011;50628;51.008;13.658;2023-04-03T02:19:47;5.90;;;1.37;;
64291;SDS011;50628;51.008;13.658;2023-04-03T02:24:49;4.17;;;1.00;;
64291;SDS011;50628;51.008;13.658;2023-04-03T02:29:52;4.97;;;1.30;;
64291;SDS011;50628;51.008;13.658;2023-04-03T02:34:55;7.93;;;1.27;;
64291;SDS011;50628;51.008;13.658;2023-04-03T02:39:57;5.30;;;1.27;;
64291;SDS011;50628;51.008;13.658;2023-04-03T02:45:02;3.57;;;0.93;;
64291;SDS011;50628;51.008;13.658;2023-04-03T02:50:06;5.60;;;1.40;;
64291;SDS011;50628;51.008;13.658;2023-04-03T02:55:09;4.60;;;1.20;;
64291;SDS011;50628;51.008;13.658;2023-04-03T03:00:15;3.70;;;1.23;;
64291;SDS011;50628;51.008;13.658;2023-04-03T03:05:19;3.80;;;1.00;;
64291;SDS011;50628;51.008;13.658;2023-04-03T03:10:21;3.20;;;1.03;;
64291;SDS011;50628;51.008;13.658;2023-04-03T03:15:24;5.33;;;1.00;;
64291;SDS011;50628;51.008;13.658;2023-04-03T03:20:27;5.37;;;1.13;;
64291;SDS011;50628;51.008;13.658;2023-04-03T03:25:29;3.77;;;1.10;;
64291;SDS011;50628;51.008;13.658;2023-04-03T03:30:31;3.20;;;1.07;;
64291;SDS011;50628;51.008;13.658;2023-04-03T03:35:34;11.40;;;1.30;;
64291;SDS011;50628;51.008;13.658;2023-04-03T03:40:36;4.70;;;1.17;;
64291;SDS011;50628;51.008;13.658;2023-04-03T03:45:39;4.57;;;1.20;;
64291;SDS011;50628;51.008;13.658;2023-04-03T03:50:42;8.37;;;1.57;;
64291;SDS011;50628;51.008;13.658;2023-04-03T03:55:45;9.77;;;1.63;;
64291;SDS011;50628;51.008;13.658;2023-04-03T04:00:47;12.87;;;1.80;;
64291;SDS011;50628;51.008;13.658;2023-04-03T04:05:51;6.20;;;1.20;;
64291;SDS011;50628;51.008;13.658;2023-04-03T04:10:53;4.93;;;1.40;;
64291;SDS011;50628;51.008;13.658;2023-04-03T04:15:55;6.93;;;1.47;;
64291;SDS011;50628;51.008;13.658;2023-04-03T04:20:58;10.33;;;1.83;;
64291;SDS011;50628;51.008;13.658;2023-04-03T04:26:01;10.83;;;1.73;;
64291;SDS011;50628;51.008;13.658;2023-04-03T04:31:07;6.83;;;1.23;;
64291;SDS011;50628;51.008;13.658;2023-04-03T04:36:11;8.03;;;1.57;;
64291;SDS011;50628;51.008;13.658;2023-04-03T04:41:16;20.83;;;2.30;;
64291;SDS011;50628;51.008;13.658;2023-04-03T04:46:19;21.40;;;1.70;;
64291;SDS011;50628;51.008;13.658;2023-04-03T04:51:27;8.17;;;2.00;;
64291;SDS011;50628;51.008;13.658;2023-04-03T04:56:30;10.63;;;1.73;;
64291;SDS011;50628;51.008;13.658;2023-04-03T05:01:33;9.83;;;1.77;;
64291;SDS011;50628;51.008;13.658;2023-04-03T05:06:48;8.03;;;1.93;;
64291;SDS011;50628;51.008;13.658;2023-04-03T05:11:55;8.67;;;2.03;;
64291;SDS011;50628;51.008;13.658;2023-04-03T05:17:00;6.80;;;1.93;;
64291;SDS011;50628;51.008;13.658;2023-04-03T05:22:07;21.13;;;2.20;;
64291;SDS011;50628;51.008;13.658;2023-04-03T05:27:11;5.40;;;1.63;;
64291;SDS011;50628;51.008;13.658;2023-04-03T05:32:17;12.47;;;2.10;;
64291;SDS011;50628;51.008;13.658;2023-04-03T05:37:24;11.47;;;1.97;;
64291;SDS011;50628;51.008;13.658;2023-04-03T05:42:27;6.87;;;1.90;;
64291;SDS011;50628;51.008;13.658;2023-04-03T05:47:30;6.67;;;1.87;;
64291;SDS011;50628;51.008;13.658;2023-04-03T05:52:34;11.33;;;2.77;;
64291;SDS011;50628;51.008;13.658;2023-04-03T05:57:38;11.10;;;2.20;;
64291;SDS011;50628;51.008;13.658;2023-04-03T06:02:40;7.40;;;1.77;;
64291;SDS011;50628;51.008;13.658;2023-04-03T06:07:49;17.33;;;3.33;;
64291;SDS011;50628;51.008;13.658;2023-04-03T06:12:51;17.77;;;4.70;;
64291;SDS011;50628;51.008;13.658;2023-04-03T06:17:53;20.93;;;3.83;;
64291;SDS011;50628;51.008;13.658;2023-04-03T06:22:57;7.03;;;2.07;;
64291;SDS011;50628;51.008;13.658;2023-04-03T06:27:59;8.27;;;1.60;;
64291;SDS011;50628;51.008;13.658;2023-04-03T06:33:01;13.53;;;2.57;;
64291;SDS011;50628;51.008;13.658;2023-04-03T06:38:04;7.17;;;2.60;;
64291;SDS011;50628;51.008;13.658;2023-04-03T06:43:09;43.17;;;5.73;;
64291;SDS011;50628;51.008;13.658;2023-04-03T06:48:11;5.93;;;1.53;;
64291;SDS011;50628;51.008;13.658;2023-04-03T06:53:15;15.27;;;2.20;;
64291;SDS011;50628;51.008;13.658;2023-04-03T06:58:17;10.70;;;1.60;;
64291;SDS011;50628;51.008;13.658;2023-04-03T07:03:19;11.77;;;1.97;;
64291;SDS011;50628;51.008;13.658;2023-04-03T07:08:22;9.50;;;1.80;;
64291;SDS011;50628;51.008;13.658;2023-04-03T07:13:26;11.70;;;1.90;;
64291;SDS011;50628;51.008;13.658;2023-04-03T07:18:28;9.50;;;1.87;;
64291;SDS011;50628;51.008;13.658;2023-04-03T07:23:31;9.97;;;2.20;;
64291;SDS011;50628;51.008;13.658;2023-04-03T07:28:33;6.70;;;2.13;;
64291;SDS011;50628;51.008;13.658;2023-04-03T07:33:35;8.43;;;1.47;;
64291;SDS011;50628;51.008;13.658;2023-04-03T07:38:39;14.80;;;4.83;;
64291;SDS011;50628;51.008;13.658;2023-04-03T07:43:41;7.90;;;3.20;;
64291;SDS011;50628;51.008;13.658;2023-04-03T07:48:43;8.23;;;2.70;;
64291;SDS011;50628;51.008;13.658;2023-04-03T07:53:46;18.97;;;2.63;;
64291;SDS011;50628;51.008;13.658;2023-04-03T07:58:48;9.33;;;2.60;;
64291;SDS011;50628;51.008;13.658;2023-04-03T08:03:50;16.00;;;2.73;;
64291;SDS011;50628;51.008;13.658;2023-04-03T08:08:54;12.13;;;2.50;;
64291;SDS011;50628;51.008;13.658;2023-04-03T08:13:56;5.23;;;1.90;;
64291;SDS011;50628;51.008;13.658;2023-04-03T08:18:58;7.30;;;2.37;;
64291;SDS011;50628;51.008;13.658;2023-04-03T08:24:02;4.27;;;1.57;;
64291;SDS011;50628;51.008;13.658;2023-04-03T08:29:04;6.37;;;1.50;;
64291;SDS011;50628;51.008;13.658;2023-04-03T08:34:06;9.97;;;2.37;;
64291;SDS011;50628;51.008;13.658;2023-04-03T08:39:10;11.27;;;2.00;;
64291;SDS011;50628;51.008;13.658;2023-04-03T08:44:14;7.17;;;3.83;;
64291;SDS011;50628;51.008;13.658;2023-04-03T08:49:23;10.90;;;1.70;;
64291;SDS011;50628;51.008;13.658;2023-04-03T08:54:30;20.80;;;2.00;;
64291;SDS011;50628;51.008;13.658;2023-04-03T08:59:35;13.93;;;2.23;;
64291;SDS011;50628;51.008;13.658;2023-04-03T09:04:39;13.57;;;1.60;;
64291;SDS011;50628;51.008;13.658;2023-04-03T09:09:42;16.83;;;2.27;;
64291;SDS011;50628;51.008;13.658;2023-04-03T09:14:50;11.70;;;2.03;;
64291;SDS011;50628;51.008;13.658;2023-04-03T09:20:01;10.33;;;2.07;;
64291;SDS011;50628;51.008;13.658;2023-04-03T09:25:17;9.93;;;1.40;;
64291;SDS011;50628;51.008;13.658;2023-04-03T09:30:22;8.37;;;1.80;;
64291;SDS011;50628;51.008;13.658;2023-04-03T09:35:26;9.37;;;1.60;;
64291;SDS011;50628;51.008;13.658;2023-04-03T09:40:36;10.00;;;1.67;;
64291;SDS011;50628;51.008;13.658;2023-04-03T09:45:39;5.33;;;1.33;;
64291;SDS011;50628;51.008;13.658;2023-04-03T09:50:52;7.53;;;1.40;;
64291;SDS011;50628;51.008;13.658;2023-04-03T09:56:00;10.93;;;1.60;;
64291;SDS011;50628;51.008;13.658;2023-04-03T10:01:04;10.77;;;1.60;;
64291;SDS011;50628;51.008;13.658;2023-04-03T10:06:14;10.27;;;1.57;;
64291;SDS011;50628;51.008;13.658;2023-04-03T10:11:25;4.43;;;1.43;;
64291;SDS011;50628;51.008;13.658;2023-04-03T10:16:29;3.87;;;1.23;;
64291;SDS011;50628;51.008;13.658;2023-04-03T10:21:39;3.00;;;0.83;;
64291;SDS011;50628;51.008;13.658;2023-04-03T10:26:50;5.77;;;1.00;;
64291;SDS011;50628;51.008;13.658;2023-04-03T10:32:00;6.70;;;1.10;;
64291;SDS011;50628;51.008;13.658;2023-04-03T10:37:12;6.43;;;0.77;;
64291;SDS011;50628;51.008;13.658;2023-04-03T10:42:25;3.00;;;0.93;;
64291;SDS011;50628;51.008;13.658;2023-04-03T10:47:37;4.97;;;1.10;;
64291;SDS011;50628;51.008;13.658;2023-04-03T10:52:46;6.60;;;1.00;;
64291;SDS011;50628;51.008;13.658;2023-04-03T10:57:58;2.97;;;0.77;;
64291;SDS011;50628;51.008;13.658;2023-04-03T11:03:02;11.80;;;1.03;;
64291;SDS011;50628;51.008;13.658;2023-04-03T11:08:09;3.77;;;0.70;;
64291;SDS011;50628;51.008;13.658;2023-04-03T11:13:19;10.30;;;1.23;;
64291;SDS011;50628;51.008;13.658;2023-04-03T11:18:26;8.67;;;0.93;;
64291;SDS011;50628;51.008;13.658;2023-04-03T11:23:34;6.83;;;1.10;;
64291;SDS011;50628;51.008;13.658;2023-04-03T11:28:39;17.20;;;2.30;;
64291;SDS011;50628;51.008;13.658;2023-04-03T11:33:43;15.97;;;2.47;;
64291;SDS011;50628;51.008;13.658;2023-04-03T11:38:53;4.70;;;0.60;;
64291;SDS011;50628;51.008;13.658;2023-04-03T11:43:58;2.03;;;0.67;;
64291;SDS011;50628;51.008;13.658;2023-04-03T11:49:02;1.90;;;0.70;;
64291;SDS011;50628;51.008;13.658;2023-04-03T11:59:44;3.90;;;0.70;;
64291;SDS011;50628;51.008;13.658;2023-04-03T12:04:52;2.93;;;0.60;;
64291;SDS011;50628;51.008;13.658;2023-04-03T12:10:28;6.70;;;1.33;;
64291;SDS011;50628;51.008;13.658;2023-04-03T12:20:55;5.27;;;1.27;;
64291;SDS011;50628;51.008;13.658;2023-04-03T12:26:03;8.53;;;1.17;;
64291;SDS011;50628;51.008;13.658;2023-04-03T12:31:21;7.40;;;1.87;;
64291;SDS011;50628;51.008;13.658;2023-04-03T12:36:28;7.50;;;1.60;;
64291;SDS011;50628;51.008;13.658;2023-04-03T12:41:38;4.60;;;0.80;;
64291;SDS011;50628;51.008;13.658;2023-04-03T12:46:53;5.00;;;1.30;;
64291;SDS011;50628;51.008;13.658;2023-04-03T12:51:55;4.90;;;0.90;;
64291;SDS011;50628;51.008;13.658;2023-04-03T12:57:10;6.27;;;0.93;;
64291;SDS011;50628;51.008;13.658;2023-04-03T13:02:19;5.17;;;1.40;;
64291;SDS011;50628;51.008;13.658;2023-04-03T13:07:26;11.20;;;1.97;;
64291;SDS011;50628;51.008;13.658;2023-04-03T13:12:32;13.17;;;1.37;;
64291;SDS011;50628;51.008;13.658;2023-04-03T13:17:36;12.80;;;2.40;;
64291;SDS011;50628;51.008;13.658;2023-04-03T13:22:43;5.80;;;1.20;;
64291;SDS011;50628;51.008;13.658;2023-04-03T13:27:51;3.93;;;0.70;;
64291;SDS011;50628;51.008;13.658;2023-04-03T13:32:54;3.37;;;0.93;;
64291;SDS011;50628;51.008;13.658;2023-04-03T13:38:00;8.70;;;1.20;;
64291;SDS011;50628;51.008;13.658;2023-04-03T13:43:05;5.33;;;1.00;;
64291;SDS011;50628;51.008;13.658;2023-04-03T13:48:10;2.13;;;1.00;;
64291;SDS011;50628;51.008;13.658;2023-04-03T13:53:18;2.80;;;0.90;;
64291;SDS011;50628;51.008;13.658;2023-04-03T13:58:22;2.57;;;0.80;;
64291;SDS011;50628;51.008;13.658;2023-04-03T14:03:28;5.20;;;0.80;;
64291;SDS011;50628;51.008;13.658;2023-04-03T14:08:32;4.20;;;1.10;;
64291;SDS011;50628;51.008;13.658;2023-04-03T14:13:34;4.23;;;1.00;;
64291;SDS011;50628;51.008;13.658;2023-04-03T14:18:37;5.33;;;1.00;;
64291;SDS011;50628;51.008;13.658;2023-04-03T14:23:39;1.73;;;0.93;;
64291;SDS011;50628;51.008;13.658;2023-04-03T14:28:41;5.33;;;0.93;;
64291;SDS011;50628;51.008;13.658;2023-04-03T14:33:45;6.77;;;1.60;;
64291;SDS011;50628;51.008;13.658;2023-04-03T14:38:48;2.43;;;0.80;;
64291;SDS011;50628;51.008;13.658;2023-04-03T14:43:51;2.73;;;1.13;;
64291;SDS011;50628;51.008;13.658;2023-04-03T14:48:54;9.93;;;1.73;;
64291;SDS011;50628;51.008;13.658;2023-04-03T14:53:56;5.00;;;1.20;;
64291;SDS011;50628;51.008;13.658;2023-04-03T14:58:59;5.33;;;1.27;;
64291;SDS011;50628;51.008;13.658;2023-04-03T15:04:08;2.80;;;0.77;;
64291;SDS011;50628;51.008;13.658;2023-04-03T15:09:16;2.83;;;0.70;;
64291;SDS011;50628;51.008;13.658;2023-04-03T15:14:21;3.50;;;0.70;;
64291;SDS011;50628;51.008;13.658;2023-04-03T15:19:25;1.63;;;0.73;;
64291;SDS011;50628;51.008;13.658;2023-04-03T15:24:27;5.97;;;0.93;;
64291;SDS011;50628;51.008;13.658;2023-04-03T15:29:29;1.67;;;0.57;;
64291;SDS011;50628;51.008;13.658;2023-04-03T15:34:32;2.27;;;0.90;;
64291;SDS011;50628;51.008;13.658;2023-04-03T15:39:34;7.37;;;1.00;;
64291;SDS011;50628;51.008;13.658;2023-04-03T15:44:36;4.17;;;1.00;;
64291;SDS011;50628;51.008;13.658;2023-04-03T15:49:39;5.57;;;1.80;;
64291;SDS011;50628;51.008;13.658;2023-04-03T15:54:41;4.77;;;1.33;;
64291;SDS011;50628;51.008;13.658;2023-04-03T15:59:43;5.53;;;1.03;;
64291;SDS011;50628;51.008;13.658;2023-04-03T16:04:46;3.80;;;0.70;;
64291;SDS011;50628;51.008;13.658;2023-04-03T16:09:48;1.77;;;0.83;;
64291;SDS011;50628;51.008;13.658;2023-04-03T16:14:50;4.90;;;1.10;;
64291;SDS011;50628;51.008;13.658;2023-04-03T16:19:54;2.20;;;1.10;;
64291;SDS011;50628;51.008;13.658;2023-04-03T16:24:57;3.47;;;1.00;;
64291;SDS011;50628;51.008;13.658;2023-04-03T16:29:58;6.27;;;1.13;;
64291;SDS011;50628;51.008;13.658;2023-04-03T16:35:02;2.63;;;0.90;;
64291;SDS011;50628;51.008;13.658;2023-04-03T16:40:06;3.13;;;1.10;;
64291;SDS011;50628;51.008;13.658;2023-04-03T16:45:09;2.50;;;0.63;;
64291;SDS011;50628;51.008;13.658;2023-04-03T16:50:13;1.90;;;1.20;;
64291;SDS011;50628;51.008;13.658;2023-04-03T16:55:15;6.27;;;0.97;;
64291;SDS011;50628;51.008;13.658;2023-04-03T17:00:17;3.60;;;0.50;;
64291;SDS011;50628;51.008;13.658;2023-04-03T17:05:20;7.40;;;1.17;;
64291;SDS011;50628;51.008;13.658;2023-04-03T17:10:24;3.43;;;0.80;;
64291;SDS011;50628;51.008;13.658;2023-04-03T17:15:26;2.50;;;0.90;;
64291;SDS011;50628;51.008;13.658;2023-04-03T17:20:30;1.10;;;0.93;;
64291;SDS011;50628;51.008;13.658;2023-04-03T17:25:33;3.83;;;1.03;;
64291;SDS011;50628;51.008;13.658;2023-04-03T17:30:35;3.03;;;0.70;;
64291;SDS011;50628;51.008;13.658;2023-04-03T17:35:38;9.83;;;1.90;;
64291;SDS011;50628;51.008;13.658;2023-04-03T17:40:40;6.93;;;1.10;;
64291;SDS011;50628;51.008;13.658;2023-04-03T17:45:43;6.47;;;1.00;;
64291;SDS011;50628;51.008;13.658;2023-04-03T17:50:47;4.07;;;0.93;;
64291;SDS011;50628;51.008;13.658;2023-04-03T17:55:48;2.07;;;0.87;;
64291;SDS011;50628;51.008;13.658;2023-04-03T18:00:50;6.73;;;1.47;;
64291;SDS011;50628;51.008;13.658;2023-04-03T18:05:55;8.07;;;1.77;;
64291;SDS011;50628;51.008;13.658;2023-04-03T18:10:56;3.73;;;1.00;;
64291;SDS011;50628;51.008;13.658;2023-04-03T18:15:58;4.50;;;1.17;;
64291;SDS011;50628;51.008;13.658;2023-04-03T18:21:02;1.70;;;1.10;;
64291;SDS011;50628;51.008;13.658;2023-04-03T18:26:04;6.40;;;1.40;;
64291;SDS011;50628;51.008;13.658;2023-04-03T18:31:09;6.17;;;2.50;;
64291;SDS011;50628;51.008;13.658;2023-04-03T18:36:16;3.37;;;1.47;;
64291;SDS011;50628;51.008;13.658;2023-04-03T18:41:18;3.83;;;1.47;;
64291;SDS011;50628;51.008;13.658;2023-04-03T18:46:21;5.37;;;2.07;;
64291;SDS011;50628;51.008;13.658;2023-04-03T18:51:25;5.53;;;1.83;;
64291;SDS011;50628;51.008;13.658;2023-04-03T18:56:27;6.13;;;2.30;;
64291;SDS011;50628;51.008;13.658;2023-04-03T19:01:29;4.37;;;1.77;;
64291;SDS011;50628;51.008;13.658;2023-04-03T19:06:32;9.63;;;2.40;;
64291;SDS011;50628;51.008;13.658;2023-04-03T19:11:35;4.23;;;2.20;;
64291;SDS011;50628;51.008;13.658;2023-04-03T19:16:37;6.33;;;2.80;;
64291;SDS011;50628;51.008;13.658;2023-04-03T19:21:41;8.30;;;4.20;;
64291;SDS011;50628;51.008;13.658;2023-04-03T19:26:43;8.00;;;3.40;;
64291;SDS011;50628;51.008;13.658;2023-04-03T19:31:45;5.23;;;2.97;;
64291;SDS011;50628;51.008;13.658;2023-04-03T19:36:48;12.27;;;3.77;;
64291;SDS011;50628;51.008;13.658;2023-04-03T19:41:51;6.10;;;3.00;;
64291;SDS011;50628;51.008;13.658;2023-04-03T19:46:53;4.70;;;2.90;;
64291;SDS011;50628;51.008;13.658;2023-04-03T19:57:12;9.07;;;3.70;;
64291;SDS011;50628;51.008;13.658;2023-04-03T20:02:14;7.53;;;2.30;;
64291;SDS011;50628;51.008;13.658;2023-04-03T20:07:18;8.03;;;2.90;;
64291;SDS011;50628;51.008;13.658;2023-04-03T20:12:21;5.10;;;2.83;;
64291;SDS011;50628;51.008;13.658;2023-04-03T20:17:23;2.03;;;1.10;;
64291;SDS011;50628;51.008;13.658;2023-04-03T20:22:26;3.33;;;1.40;;
64291;SDS011;50628;51.008;13.658;2023-04-03T20:27:30;5.33;;;1.60;;
64291;SDS011;50628;51.008;13.658;2023-04-03T20:32:32;4.70;;;1.00;;
64291;SDS011;50628;51.008;13.658;2023-04-03T20:37:34;3.73;;;1.30;;
64291;SDS011;50628;51.008;13.658;2023-04-03T20:42:38;3.47;;;1.63;;
64291;SDS011;50628;51.008;13.658;2023-04-03T20:47:40;3.47;;;1.33;;
64291;SDS011;50628;51.008;13.658;2023-04-03T20:52:42;2.17;;;1.20;;
64291;SDS011;50628;51.008;13.658;2023-04-03T20:57:45;2.53;;;1.20;;
64291;SDS011;50628;51.008;13.658;2023-04-03T21:02:47;5.93;;;1.60;;
64291;SDS011;50628;51.008;13.658;2023-04-03T21:19:11;3.53;;;1.53;;
64291;SDS011;50628;51.008;13.658;2023-04-03T21:24:15;6.13;;;1.73;;
64291;SDS011;50628;51.008;13.658;2023-04-03T21:29:18;4.67;;;1.07;;
64291;SDS011;50628;51.008;13.658;2023-04-03T21:34:21;7.10;;;1.57;;
64291;SDS011;50628;51.008;13.658;2023-04-03T21:39:25;4.60;;;1.43;;
64291;SDS011;50628;51.008;13.658;2023-04-03T21:44:27;3.57;;;1.30;;
64291;SDS011;50628;51.008;13.658;2023-04-03T21:49:30;4.00;;;1.50;;
64291;SDS011;50628;51.008;13.658;2023-04-03T21:54:33;2.47;;;1.50;;
64291;SDS011;50628;51.008;13.658;2023-04-03T21:59:35;3.93;;;1.47;;
64291;SDS011;50628;51.008;13.658;2023-04-03T22:04:38;4.03;;;1.73;;
64291;SDS011;50628;51.008;13.658;2023-04-03T22:09:40;5.63;;;1.60;;
64291;SDS011;50628;51.008;13.658;2023-04-03T22:14:42;4.53;;;1.50;;
64291;SDS011;50628;51.008;13.658;2023-04-03T22:19:45;3.67;;;1.47;;
64291;SDS011;50628;51.008;13.658;2023-04-03T22:24:47;4.27;;;1.67;;
64291;SDS011;50628;51.008;13.658;2023-04-03T22:29:49;6.93;;;2.00;;
64291;SDS011;50628;51.008;13.658;2023-04-03T22:34:52;7.03;;;1.60;;
64291;SDS011;50628;51.008;13.658;2023-04-03T22:39:54;6.10;;;1.83;;
64291;SDS011;50628;51.008;13.658;2023-04-03T22:44:55;4.57;;;1.30;;
64291;SDS011;50628;51.008;13.658;2023-04-03T22:49:59;3.60;;;1.53;;
64291;SDS011;50628;51.008;13.658;2023-04-03T22:55:01;17.93;;;3.27;;
64291;SDS011;50628;51.008;13.658;2023-04-03T23:00:04;8.70;;;2.30;;
64291;SDS011;50628;51.008;13.658;2023-04-03T23:05:08;6.80;;;1.90;;
64291;SDS011;50628;51.008;13.658;2023-04-03T23:10:10;4.83;;;1.93;;
64291;SDS011;50628;51.008;13.658;2023-04-03T23:15:12;11.60;;;4.67;;
64291;SDS011;50628;51.008;13.658;2023-04-03T23:20:18;3.77;;;1.80;;
64291;SDS011;50628;51.008;13.658;2023-04-03T23:25:19;5.17;;;1.20;;
64291;SDS011;50628;51.008;13.658;2023-04-03T23:30:21;3.50;;;1.50;;
64291;SDS011;50628;51.008;13.658;2023-04-03T23:35:24;5.37;;;1.73;;
64291;SDS011;50628;51.008;13.658;2023-04-03T23:40:27;7.27;;;1.37;;
64291;SDS011;50628;51.008;13.658;2023-04-03T23:45:29;3.17;;;1.20;;
64291;SDS011;50628;51.008;13.658;2023-04-03T23:50:33;3.00;;;1.20;;
64291;SDS011;50628;51.008;13.658;2023-04-03T23:55:36;2.47;;;1.40;;
